Time;durP1;ratioP1;P1;durP2;ratioP2;P2;SDS_P1;SDS_P2;PMS_P1;PMS_P2;Temp;Humidity;BMP_temperature;BMP_pressure;BME280_temperature;BME280_humidity;BME280_pressure;Samples;Min_cycle;Max_cycle;Signal;HPM_P1;HPM_P2
2021/01/11 16:29:06;;;;;;;1999.90;999.90;;;-3.40;99.90;;;;;;5067385;28;20574;-45
2021/01/11 16:31:32;;;;;;;1999.90;999.90;;;-3.60;99.90;;;;;;5069392;28;20188;-46
2021/01/11 16:34:00;;;;;;;1999.90;999.90;;;-3.50;99.90;;;;;;5068682;28;20226;-45
2021/01/11 16:36:26;;;;;;;1999.90;999.90;;;-3.50;99.90;;;;;;5048577;28;20223;-46
2021/01/11 16:38:52;;;;;;;1999.90;999.90;;;-3.50;99.90;;;;;;5049227;28;20284;-46
2021/01/11 16:41:20;;;;;;;1999.90;999.90;;;-3.50;99.90;;;;;;5044603;28;20504;-46
2021/01/11 16:43:46;;;;;;;1999.90;999.90;;;-3.50;99.90;;;;;;5044054;28;20239;-46
2021/01/11 16:46:12;;;;;;;1999.90;999.90;;;-3.50;99.90;;;;;;5047876;28;20737;-46
2021/01/11 16:48:38;;;;;;;1999.90;999.90;;;-3.50;99.90;;;;;;5030114;28;20477;-46
2021/01/11 16:51:04;;;;;;;1999.90;999.90;;;-3.50;99.90;;;;;;5044179;28;20714;-47
2021/01/11 16:53:29;;;;;;;1999.90;999.90;;;-3.50;99.90;;;;;;5049522;28;20532;-45
2021/01/11 16:55:55;;;;;;;1999.90;999.90;;;-3.40;99.90;;;;;;5048005;28;20201;-46
2021/01/11 16:58:21;;;;;;;1999.90;999.90;;;-3.50;99.90;;;;;;5049676;28;20193;-53
2021/01/11 17:00:46;;;;;;;1999.90;999.90;;;-3.50;99.90;;;;;;5054243;28;20189;-46
2021/01/11 17:03:12;;;;;;;1999.90;999.90;;;-3.50;99.90;;;;;;5057677;28;20185;-46
2021/01/11 17:05:37;;;;;;;1999.90;999.90;;;-3.50;99.90;;;;;;5056454;28;20240;-46
2021/01/11 17:08:03;;;;;;;1999.90;999.90;;;-3.50;99.90;;;;;;5055438;28;20721;-46
2021/01/11 17:10:29;;;;;;;1999.90;999.90;;;-3.50;99.90;;;;;;5049926;28;20192;-46
2021/01/11 17:12:55;;;;;;;1999.90;999.90;;;-3.50;99.90;;;;;;5054467;28;20420;-46
2021/01/11 17:15:20;;;;;;;1999.90;999.90;;;-3.50;99.90;;;;;;5047162;28;20212;-44
2021/01/11 17:17:46;;;;;;;1999.90;999.90;;;-3.50;99.90;;;;;;5049601;28;20606;-45
2021/01/11 17:20:12;;;;;;;1999.90;999.90;;;-3.50;99.90;;;;;;5047524;28;20183;-47
2021/01/11 17:22:38;;;;;;;1999.90;999.90;;;-3.40;99.90;;;;;;5049410;28;20182;-44
2021/01/11 17:25:05;;;;;;;1999.90;999.90;;;-3.50;99.90;;;;;;5046559;28;20617;-44
2021/01/11 17:27:31;;;;;;;1999.90;999.90;;;-3.50;99.90;;;;;;5048835;28;20474;-45
2021/01/11 17:29:57;;;;;;;1999.90;999.90;;;-3.40;99.90;;;;;;5047949;28;20448;-45
2021/01/11 17:32:23;;;;;;;1999.90;999.90;;;-3.40;99.90;;;;;;5047818;28;20190;-45
2021/01/11 17:34:48;;;;;;;1999.90;999.90;;;-3.40;99.90;;;;;;5046361;28;20202;-46
2021/01/11 17:37:14;;;;;;;1999.90;999.90;;;-3.40;99.90;;;;;;5047724;28;20196;-45
2021/01/11 17:39:39;;;;;;;1999.90;999.90;;;-3.40;99.90;;;;;;5038911;28;20194;-46
2021/01/11 17:42:09;;;;;;;1999.90;999.90;;;-3.30;99.90;;;;;;5035520;28;20196;-46
2021/01/11 17:44:35;;;;;;;1999.90;999.90;;;-3.30;99.90;;;;;;5034415;28;20240;-45
2021/01/11 17:47:01;;;;;;;1999.90;999.90;;;-3.30;99.90;;;;;;5032986;28;20833;-46
2021/01/11 17:49:27;;;;;;;1999.90;999.90;;;-3.30;99.90;;;;;;5034067;28;20509;-45
2021/01/11 17:51:52;;;;;;;1999.90;999.90;;;-3.40;99.90;;;;;;5034211;28;20528;-46
2021/01/11 17:54:18;;;;;;;1999.90;999.90;;;-3.40;99.90;;;;;;5034499;28;20213;-45
2021/01/11 17:56:44;;;;;;;1999.90;999.90;;;-3.40;99.90;;;;;;5034498;28;20195;-46
2021/01/11 17:59:09;;;;;;;1999.90;999.90;;;-3.40;99.90;;;;;;5035207;28;20637;-45
2021/01/11 18:01:37;;;;;;;1999.90;999.90;;;-3.40;99.90;;;;;;5033422;28;20190;-45
2021/01/11 18:04:04;;;;;;;1999.90;999.90;;;-3.40;99.90;;;;;;5032930;28;20679;-45
2021/01/11 18:06:32;;;;;;;1999.90;999.90;;;-3.40;99.90;;;;;;5025507;28;20453;-46
2021/01/11 18:08:59;;;;;;;1999.90;999.90;;;-3.30;99.90;;;;;;5017160;28;20464;-45
2021/01/11 18:11:25;;;;;;;1999.90;999.90;;;-3.30;99.90;;;;;;5034383;28;20521;-46
2021/01/11 18:13:52;;;;;;;1999.90;999.90;;;-3.30;99.90;;;;;;5035134;28;20400;-45
2021/01/11 18:16:18;;;;;;;1999.90;999.90;;;-3.30;99.90;;;;;;5033866;28;20588;-45
2021/01/11 18:18:44;;;;;;;1999.90;999.90;;;-3.20;99.90;;;;;;5034768;28;20425;-46
2021/01/11 18:21:11;;;;;;;1999.90;999.90;;;-3.20;99.90;;;;;;5033725;28;20464;-45
2021/01/11 18:23:37;;;;;;;1999.90;999.90;;;-3.20;99.90;;;;;;5035263;28;20185;-45
2021/01/11 18:26:03;;;;;;;1999.90;999.90;;;-3.20;99.90;;;;;;5031909;28;21176;-45
2021/01/11 18:28:29;;;;;;;1999.90;999.90;;;-3.20;99.90;;;;;;5034403;28;20475;-45
2021/01/11 18:30:57;;;;;;;1999.90;999.90;;;-3.20;99.90;;;;;;5033655;28;20190;-47
2021/01/11 18:33:24;;;;;;;1999.90;999.90;;;-3.20;99.90;;;;;;5033654;28;20194;-47
2021/01/11 18:35:50;;;;;;;1999.90;999.90;;;-3.10;99.90;;;;;;5020611;28;20458;-44
2021/01/11 18:38:16;;;;;;;1999.90;999.90;;;-3.10;99.90;;;;;;5020787;28;20421;-48
2021/01/11 18:40:41;;;;;;;1999.90;999.90;;;-3.20;99.90;;;;;;5034038;28;20464;-48
2021/01/11 18:43:07;;;;;;;1999.90;999.90;;;-3.20;99.90;;;;;;5035757;28;20257;-45
2021/01/11 18:45:33;;;;;;;1999.90;999.90;;;-3.20;99.90;;;;;;5033193;28;20700;-45
2021/01/11 18:48:00;;;;;;;1999.90;999.90;;;-3.20;99.90;;;;;;5033978;28;20764;-45
2021/01/11 18:50:26;;;;;;;1999.90;999.90;;;-3.20;99.90;;;;;;5033320;28;20445;-47
2021/01/11 18:52:52;;;;;;;1999.90;999.90;;;-3.20;99.90;;;;;;5032053;28;20778;-45
2021/01/11 18:55:19;;;;;;;1999.90;999.90;;;-3.20;99.90;;;;;;5063243;28;20456;-46
2021/01/11 18:57:45;;;;;;;1999.90;999.90;;;-3.20;99.90;;;;;;5031400;28;20441;-46
2021/01/11 19:00:11;;;;;;;1999.90;999.90;;;-3.20;99.90;;;;;;5030862;28;20807;-46
2021/01/11 19:02:37;;;;;;;1999.90;999.90;;;-3.20;99.90;;;;;;5029131;28;20427;-46
2021/01/11 19:05:04;;;;;;;1999.90;999.90;;;-3.20;99.90;;;;;;5030146;28;20441;-46
2021/01/11 19:07:29;;;;;;;1999.90;999.90;;;-3.30;99.90;;;;;;5026777;28;21338;-46
2021/01/11 19:09:55;;;;;;;1999.90;999.90;;;-3.30;99.90;;;;;;5026772;28;20452;-46
2021/01/11 19:12:21;;;;;;;1999.90;999.90;;;-3.30;99.90;;;;;;5024787;28;20197;-46
2021/01/11 19:14:47;;;;;;;1999.90;999.90;;;-3.20;99.90;;;;;;5025961;28;20203;-46
2021/01/11 19:17:14;;;;;;;1999.90;999.90;;;-3.20;99.90;;;;;;5024329;28;20723;-47
2021/01/11 19:19:39;;;;;;;1999.90;999.90;;;-3.20;99.90;;;;;;5027180;28;20932;-45
2021/01/11 19:22:05;;;;;;;1999.90;999.90;;;-3.20;99.90;;;;;;5026218;28;20452;-46
2021/01/11 19:24:31;;;;;;;1999.90;999.90;;;-3.20;99.90;;;;;;5017982;28;20549;-46
2021/01/11 19:26:57;;;;;;;1999.90;999.90;;;-3.20;99.90;;;;;;5022812;28;20201;-46
2021/01/11 19:29:26;;;;;;;1999.90;999.90;;;-3.10;99.90;;;;;;5026121;28;20945;-46
2021/01/11 19:31:55;;;;;;;1999.90;999.90;;;-3.10;99.90;;;;;;5024892;28;20809;-46
2021/01/11 19:34:20;;;;;;;1999.90;999.90;;;-3.20;99.90;;;;;;5024034;28;20448;-46
2021/01/11 19:36:46;;;;;;;1999.90;999.90;;;-3.20;99.90;;;;;;5023756;28;20411;-45
2021/01/11 19:39:15;;;;;;;1999.90;999.90;;;-3.20;99.90;;;;;;5026788;28;20534;-47
2021/01/11 19:41:41;;;;;;;1999.90;999.90;;;-3.30;99.90;;;;;;5025555;28;20671;-46
2021/01/11 19:44:07;;;;;;;1999.90;999.90;;;-3.30;99.90;;;;;;5026610;28;20428;-47
2021/01/11 19:46:44;;;;;;;1999.90;999.90;;;-3.30;99.90;;;;;;5024580;28;20433;-46
2021/01/11 19:49:11;;;;;;;1999.90;999.90;;;-3.30;99.90;;;;;;5024519;28;20452;-58
2021/01/11 19:51:37;;;;;;;1999.90;999.90;;;-3.40;99.90;;;;;;5026352;28;20482;-47
2021/01/11 19:54:05;;;;;;;1999.90;999.90;;;-3.40;99.90;;;;;;5026855;28;20433;-46
2021/01/11 19:56:31;;;;;;;1999.90;999.90;;;-3.40;99.90;;;;;;5024874;28;20445;-46
2021/01/11 19:58:56;;;;;;;1999.90;999.90;;;-3.50;99.90;;;;;;5027105;28;20197;-46
2021/01/11 20:01:22;;;;;;;1999.90;999.90;;;-3.40;99.90;;;;;;5020446;28;20455;-46
2021/01/11 20:03:50;;;;;;;1999.90;999.90;;;-3.40;99.90;;;;;;5026709;28;20256;-47
2021/01/11 20:06:23;;;;;;;1999.90;999.90;;;-3.50;99.90;;;;;;5024935;28;20214;-47
2021/01/11 20:08:49;;;;;;;1999.90;999.90;;;-3.40;99.90;;;;;;5017951;28;20448;-46
2021/01/11 20:11:16;;;;;;;1999.90;999.90;;;-3.50;99.90;;;;;;5022290;28;20499;-46
2021/01/11 20:13:45;;;;;;;1999.90;999.90;;;-3.50;99.90;;;;;;5024327;28;20531;-46
2021/01/11 20:16:14;;;;;;;1999.90;999.90;;;-3.40;99.90;;;;;;5020746;28;20468;-46
2021/01/11 20:18:41;;;;;;;1999.90;999.90;;;-3.40;99.90;;;;;;5011807;28;21356;-46
2021/01/11 20:21:08;;;;;;;1999.90;999.90;;;-3.40;99.90;;;;;;5019203;28;20793;-46
2021/01/11 20:23:34;;;;;;;1999.90;999.90;;;-3.40;99.90;;;;;;5022488;28;20204;-46
2021/01/11 20:26:08;;;;;;;1999.90;999.90;;;-3.40;99.90;;;;;;5021407;28;20478;-46
2021/01/11 20:28:35;;;;;;;1999.90;999.90;;;-3.40;99.90;;;;;;5022450;28;20530;-46
2021/01/11 20:31:02;;;;;;;1999.90;999.90;;;-3.40;99.90;;;;;;5022479;28;20445;-46
2021/01/11 20:33:28;;;;;;;1999.90;999.90;;;-3.40;99.90;;;;;;5023132;28;20417;-46
2021/01/11 20:35:55;;;;;;;1999.90;999.90;;;-3.40;99.90;;;;;;5017421;28;20476;-47
2021/01/11 20:38:20;;;;;;;1999.90;999.90;;;-3.50;99.90;;;;;;5021757;28;20433;-47
2021/01/11 20:40:47;;;;;;;1999.90;999.90;;;-3.50;99.90;;;;;;5020288;28;21075;-47
2021/01/11 20:43:13;;;;;;;1999.90;999.90;;;-3.50;99.90;;;;;;5021298;28;20503;-47
2021/01/11 20:45:38;;;;;;;1999.90;999.90;;;-3.50;99.90;;;;;;5020833;28;20300;-46
2021/01/11 20:48:04;;;;;;;1999.90;999.90;;;-3.50;99.90;;;;;;5021076;28;20198;-47
2021/01/11 20:50:30;;;;;;;1999.90;999.90;;;-3.50;99.90;;;;;;5020296;28;20193;-46
2021/01/11 20:52:57;;;;;;;1999.90;999.90;;;-3.50;99.90;;;;;;5022949;28;20440;-46
2021/01/11 20:55:24;;;;;;;1999.90;999.90;;;-3.50;99.90;;;;;;5019853;28;20224;-47
2021/01/11 20:57:50;;;;;;;1999.90;999.90;;;-3.50;99.90;;;;;;5021773;28;21221;-46
2021/01/11 21:00:17;;;;;;;1999.90;999.90;;;-3.50;99.90;;;;;;5018527;28;21056;-47
2021/01/11 21:02:43;;;;;;;1999.90;999.90;;;-3.50;99.90;;;;;;5022379;28;20792;-48
2021/01/11 21:05:09;;;;;;;1999.90;999.90;;;-3.50;99.90;;;;;;5018925;28;20465;-48
2021/01/11 21:07:35;;;;;;;1999.90;999.90;;;-3.50;99.90;;;;;;5021699;28;20469;-47
2021/01/11 21:10:01;;;;;;;1999.90;999.90;;;-3.50;99.90;;;;;;5021569;28;20441;-47
2021/01/11 21:12:26;;;;;;;1999.90;999.90;;;-3.40;99.90;;;;;;5021766;28;20440;-48
2021/01/11 21:14:52;;;;;;;1999.90;999.90;;;-3.50;99.90;;;;;;5023318;28;20293;-47
2021/01/11 21:17:17;;;;;;;1999.90;999.90;;;-3.40;99.90;;;;;;5023931;28;20236;-47
2021/01/11 21:19:43;;;;;;;1999.90;999.90;;;-3.40;99.90;;;;;;5057167;28;20243;-47
2021/01/11 21:22:10;;;;;;;1999.90;999.90;;;-3.40;99.90;;;;;;5024355;28;20190;-48
2021/01/11 21:24:36;;;;;;;1999.90;999.90;;;-3.40;99.90;;;;;;5024178;28;20463;-48
2021/01/11 21:27:03;;;;;;;1999.90;999.90;;;-3.40;99.90;;;;;;5023051;28;20439;-46
2021/01/11 21:29:29;;;;;;;1999.90;999.90;;;-3.40;99.90;;;;;;5023142;28;20217;-48
2021/01/11 21:31:59;;;;;;;1999.90;999.90;;;-3.40;99.90;;;;;;5025811;28;20477;-47
2021/01/11 21:34:24;;;;;;;1999.90;999.90;;;-3.40;99.90;;;;;;5024714;28;20285;-46
2021/01/11 21:36:50;;;;;;;1999.90;999.90;;;-3.40;99.90;;;;;;5022247;28;21060;-46
2021/01/11 21:39:17;;;;;;;1999.90;999.90;;;-3.40;99.90;;;;;;5026176;28;20262;-46
2021/01/11 21:41:45;;;;;;;1999.90;999.90;;;-3.40;99.90;;;;;;5024973;28;20240;-46
2021/01/11 21:44:11;;;;;;;1999.90;999.90;;;-3.40;99.90;;;;;;5030425;28;20472;-46
2021/01/11 21:46:38;;;;;;;1999.90;999.90;;;-3.40;99.90;;;;;;5032213;28;20437;-47
2021/01/11 21:49:04;;;;;;;1999.90;999.90;;;-3.30;99.90;;;;;;5032263;28;20476;-46
2021/01/11 21:51:38;;;;;;;1999.90;999.90;;;-3.30;99.90;;;;;;5032107;28;20552;-46
2021/01/11 21:54:05;;;;;;;1999.90;999.90;;;-3.30;99.90;;;;;;5032725;28;20405;-46
2021/01/11 21:56:31;;;;;;;1999.90;999.90;;;-3.30;99.90;;;;;;5031330;28;20444;-46
2021/01/11 21:58:56;;;;;;;1999.90;999.90;;;-3.30;99.90;;;;;;5033256;28;20182;-46
2021/01/11 22:01:22;;;;;;;1999.90;999.90;;;-3.40;99.90;;;;;;5031866;28;20542;-46
2021/01/11 22:03:48;;;;;;;1999.90;999.90;;;-3.40;99.90;;;;;;5032418;28;20264;-46
2021/01/11 22:06:16;;;;;;;1999.90;999.90;;;-3.40;99.90;;;;;;5032994;28;20468;-46
2021/01/11 22:08:42;;;;;;;1999.90;999.90;;;-3.40;99.90;;;;;;5035092;28;20705;-46
2021/01/11 22:11:09;;;;;;;1999.90;999.90;;;-3.30;99.90;;;;;;5031527;28;20193;-46
2021/01/11 22:13:35;;;;;;;1999.90;999.90;;;-3.30;99.90;;;;;;5032442;28;20212;-46
2021/01/11 22:16:00;;;;;;;1999.90;999.90;;;-3.30;99.90;;;;;;5029236;28;20969;-47
2021/01/11 22:18:26;;;;;;;1999.90;999.90;;;-3.30;99.90;;;;;;5031545;28;20218;-46
2021/01/11 22:20:52;;;;;;;1999.90;999.90;;;-3.30;99.90;;;;;;5031521;28;20656;-46
2021/01/11 22:23:18;;;;;;;1999.90;999.90;;;-3.30;99.90;;;;;;5031436;28;20217;-46
2021/01/11 22:25:54;;;;;;;1999.90;999.90;;;-3.30;99.90;;;;;;5032072;28;20230;-46
2021/01/11 22:28:20;;;;;;;1999.90;999.90;;;-3.30;99.90;;;;;;5031360;28;20914;-46
2021/01/11 22:30:47;;;;;;;1999.90;999.90;;;-3.30;99.90;;;;;;5032648;28;20779;-46
2021/01/11 22:33:14;;;;;;;1999.90;999.90;;;-3.30;99.90;;;;;;5031241;28;21009;-46
2021/01/11 22:35:40;;;;;;;1999.90;999.90;;;-3.30;99.90;;;;;;5031908;28;20432;-46
2021/01/11 22:38:06;;;;;;;1999.90;999.90;;;-3.30;99.90;;;;;;5029750;28;20437;-46
2021/01/11 22:40:32;;;;;;;1999.90;999.90;;;-3.30;99.90;;;;;;5031698;28;20487;-46
2021/01/11 22:42:58;;;;;;;1999.90;999.90;;;-3.30;99.90;;;;;;5031341;28;20531;-46
2021/01/11 22:45:24;;;;;;;1999.90;999.90;;;-3.20;99.90;;;;;;5031372;28;20449;-46
2021/01/11 22:47:49;;;;;;;1999.90;999.90;;;-3.20;99.90;;;;;;5031481;28;20641;-46
2021/01/11 22:50:15;;;;;;;1999.90;999.90;;;-3.20;99.90;;;;;;5031086;28;20448;-47
2021/01/11 22:52:41;;;;;;;1999.90;999.90;;;-3.20;99.90;;;;;;5031690;28;20218;-46
2021/01/11 22:55:24;;;;;;;1999.90;999.90;;;-3.30;99.90;;;;;;5030581;28;20335;-46
2021/01/11 22:57:50;;;;;;;1999.90;999.90;;;-3.30;99.90;;;;;;5030732;28;20208;-46
2021/01/11 23:00:16;;;;;;;1999.90;999.90;;;-3.30;99.90;;;;;;5030942;28;20457;-46
2021/01/11 23:02:42;;;;;;;1999.90;999.90;;;-3.30;99.90;;;;;;5027023;28;20822;-47
2021/01/11 23:05:24;;;;;;;1999.90;999.90;;;-3.30;99.90;;;;;;5032417;28;20444;-46
2021/01/11 23:07:50;;;;;;;1999.90;999.90;;;-3.30;99.90;;;;;;5031353;28;20456;-46
2021/01/11 23:10:18;;;;;;;1999.90;999.90;;;-3.30;99.90;;;;;;5029618;28;20502;-46
2021/01/11 23:12:44;;;;;;;1999.90;999.90;;;-3.30;99.90;;;;;;5030531;28;20530;-46
2021/01/11 23:15:16;;;;;;;1999.90;999.90;;;-3.30;99.90;;;;;;5031331;28;20440;-46
2021/01/11 23:17:44;;;;;;;1999.90;999.90;;;-3.30;99.90;;;;;;5030414;28;20191;-46
2021/01/11 23:20:12;;;;;;;1999.90;999.90;;;-3.30;99.90;;;;;;5029748;28;20518;-46
2021/01/11 23:22:38;;;;;;;1999.90;999.90;;;-3.30;99.90;;;;;;5029285;28;20889;-46
2021/01/11 23:25:09;;;;;;;1999.90;999.90;;;-3.30;99.90;;;;;;5030173;28;20476;-46
2021/01/11 23:27:34;;;;;;;1999.90;999.90;;;-3.30;99.90;;;;;;5031342;28;20271;-46
2021/01/11 23:30:00;;;;;;;1999.90;999.90;;;-3.30;99.90;;;;;;5030062;28;20942;-46
2021/01/11 23:32:33;;;;;;;1999.90;999.90;;;-3.30;99.90;;;;;;5031553;28;20186;-46
2021/01/11 23:34:58;;;;;;;1999.90;999.90;;;-3.30;99.90;;;;;;5029860;28;20206;-46
2021/01/11 23:37:35;;;;;;;1999.90;999.90;;;-3.30;99.90;;;;;;5030184;28;20460;-46
2021/01/11 23:40:01;;;;;;;1999.90;999.90;;;-3.30;99.90;;;;;;5029619;28;20216;-46
2021/01/11 23:42:29;;;;;;;1999.90;999.90;;;-3.30;99.90;;;;;;5031119;28;20428;-46
2021/01/11 23:44:54;;;;;;;1999.90;999.90;;;-3.30;99.90;;;;;;5029974;28;20479;-45
